Warning: Javascript must be enabled to use all the features on this page!


Page Loading - Please Wait...

* We've detected you're using a mobile device. Find our Next Generation Station Page here.
Click to hideNews Bulletins

Peak Streamflow for the Nation

USGS 06150000 Woodpile Coulee near international boundary

Hill County, Montana
Hydrologic Unit Code 10050008
Latitude  48°58'59.57", Longitude 109°31'51.94" NAD83
Drainage area 67  square miles
Gage datum 2,740 feet above NGVD29
Output formats
Table
Graph
Tab-separated file
peakfq (watstore) format
Reselect output format
Water
Year
Date Gage
Height
(feet)
Stream-
flow
(cfs)
1927 1927-04-04   423
1928 1928-04-02 5.04 352
1929 1929-06-02 2.14 36.0
1930 1930-04-02 4.70 280
1931 1931-08-01   0.40
1932 1932-03-23 2.821 46.0
1933 1933-06-29 2.57 61.0
1934 1934-04-02   11.01
1935 1935-04-12 6.04 591
1936 1936-04-13 7.11 1,220
1937 1937-04-09 5.71 490
1938 1938-03-27 5.81 551
1939 1939-03-22 7.87 2,150
1940 1940-04-18 7.39 1,530
1941 1941-03-22 7.781 1,770
1942 1942-03-31 4.36 204
1943 1943-03-30 8.60 3,090
1944 1944-08-25 8.50 2,960
1945 1945-03-19 4.98 293
1946 1946-03-11 4.30 206
1947 1947-03-29 5.89 547
1948 1948   0.00Bm
1949 1949   0.00Bm
1950 1950-04-13 7.13 1,160
1951 1951-04-05 5.43 369
1952 1952-04-07 8.50 2,960
1953 1953-05-30   10.0
1954 1954-04-06 6.51 786
1955 1955-04-19 6.60 840
1956 1956-05-11 2.66 24.0
1957 1957-04-04 4.84 261
1958 1958-03-31 6.32 696
1959 1959-03-27 5.61 2921
1960 1960-03-23 5.47 4501
1961 1961-03-14 3.50 113
1962 1962-03-27 3.91 159
1963 1963-02-28 2.29 4.00
1964 1964   0.00Bm
1965 1965-06-27 4.83 352
1966 1966-03-18 4.272 164
1967 1967-04-28 5.13 358
1968 1968   0.00Bm
1969 1969-04-06 6.59 925
1970 1970   0.00Bm
1971 1971-04-08 2.91 17.0
1972 1972-03-17 4.77 325
1973 1973   0.00Bm
1974 1974-05-21 5.53 519
1975 1975-06-20 5.95 648
1976 1976-03-19 6.91 1,160
1986 1986-09-25   7,2807
?
  Peak Gage-Height Qualification Codes.
?
  Peak Streamflow Qualification Codes.